createdAt,value
2023-08-03T00:00:48.737Z,0.00
2023-08-03T00:01:48.885Z,0.00
2023-08-03T00:02:48.820Z,0.00
2023-08-03T00:03:48.839Z,0.00
2023-08-03T00:04:48.638Z,0.00
2023-08-03T00:05:48.761Z,0.00
2023-08-03T00:06:48.632Z,0.00
2023-08-03T00:07:48.637Z,0.00
2023-08-03T00:08:48.629Z,0.00
2023-08-03T00:09:48.597Z,0.00
2023-08-03T00:10:48.571Z,0.00
2023-08-03T00:11:48.595Z,0.00
2023-08-03T00:12:48.539Z,0.00
2023-08-03T00:13:48.554Z,0.00
2023-08-03T00:14:48.517Z,0.00
2023-08-03T00:15:48.575Z,0.00
2023-08-03T00:16:48.510Z,0.00
2023-08-03T00:17:48.525Z,0.00
2023-08-03T00:18:48.484Z,0.00
2023-08-03T00:19:48.483Z,0.00
2023-08-03T00:20:48.449Z,0.00
2023-08-03T00:21:48.459Z,0.00
2023-08-03T00:22:48.425Z,0.00
2023-08-03T00:23:48.424Z,0.00
2023-08-03T00:24:48.387Z,0.00
2023-08-03T00:25:48.405Z,0.00
2023-08-03T00:26:48.360Z,0.00
2023-08-03T00:27:48.388Z,0.00
2023-08-03T00:28:48.333Z,0.00
2023-08-03T00:29:48.339Z,0.00
2023-08-03T00:30:48.368Z,0.00
2023-08-03T00:31:48.347Z,0.00
2023-08-03T00:32:48.288Z,0.00
2023-08-03T00:33:48.312Z,0.00
2023-08-03T00:34:48.244Z,0.00
2023-08-03T00:35:48.295Z,0.00
2023-08-03T00:36:48.244Z,0.00
2023-08-03T00:37:48.255Z,0.00
2023-08-03T00:38:48.196Z,0.00
2023-08-03T00:39:48.209Z,0.00
2023-08-03T00:40:48.200Z,0.00
2023-08-03T00:41:48.180Z,0.00
2023-08-03T00:42:48.189Z,0.00
2023-08-03T00:43:48.149Z,0.00
2023-08-03T00:44:48.157Z,0.00
2023-08-03T00:45:48.139Z,0.00
2023-08-03T00:46:48.124Z,0.00
2023-08-03T00:47:48.253Z,0.00
2023-08-03T00:48:48.087Z,0.00
2023-08-03T00:49:48.083Z,0.00
2023-08-03T00:50:48.054Z,0.00
2023-08-03T00:51:48.054Z,0.00
2023-08-03T00:52:48.029Z,0.00
2023-08-03T00:53:48.023Z,0.00
2023-08-03T00:54:48.000Z,0.00
2023-08-03T00:55:48.016Z,0.00
2023-08-03T00:56:47.962Z,0.00
2023-08-03T00:57:47.987Z,0.00
2023-08-03T00:58:47.974Z,0.00
2023-08-03T00:59:47.969Z,0.00
2023-08-03T01:00:47.964Z,0.00
2023-08-03T01:01:47.985Z,0.00
2023-08-03T01:02:47.951Z,0.00
2023-08-03T01:03:47.907Z,0.00
2023-08-03T01:04:47.862Z,0.00
2023-08-03T01:05:47.881Z,0.00
2023-08-03T01:06:47.874Z,0.00
2023-08-03T01:07:47.848Z,0.00
2023-08-03T01:08:47.837Z,0.00
2023-08-03T01:09:47.814Z,0.00
2023-08-03T01:10:47.799Z,0.00
2023-08-03T01:11:47.840Z,0.00
2023-08-03T01:12:47.776Z,0.00
2023-08-03T01:13:47.752Z,0.00
2023-08-03T01:14:47.738Z,0.00
2023-08-03T01:15:47.798Z,0.00
2023-08-03T01:16:47.718Z,0.00
2023-08-03T01:17:47.753Z,0.00
2023-08-03T01:18:47.669Z,0.00
2023-08-03T01:19:47.713Z,0.00
2023-08-03T01:20:47.686Z,0.00
2023-08-03T01:21:47.782Z,0.00
2023-08-03T01:22:47.653Z,0.00
2023-08-03T01:23:47.665Z,0.00
2023-08-03T01:24:47.633Z,0.00
2023-08-03T01:25:47.609Z,0.00
2023-08-03T01:26:47.585Z,0.00
2023-08-03T01:27:47.614Z,0.00
2023-08-03T01:28:47.565Z,0.00
2023-08-03T01:29:47.566Z,0.00
2023-08-03T01:30:47.551Z,0.00
2023-08-03T01:31:47.530Z,0.00
2023-08-03T01:32:47.668Z,0.00
2023-08-03T01:33:47.537Z,0.00
2023-08-03T01:34:47.512Z,0.00
2023-08-03T01:35:47.501Z,0.00
2023-08-03T01:36:47.447Z,0.00
2023-08-03T01:37:47.444Z,0.00
2023-08-03T01:38:47.441Z,0.00
2023-08-03T01:39:47.417Z,0.00
2023-08-03T01:40:47.403Z,0.00
2023-08-03T01:41:47.488Z,0.00
2023-08-03T01:42:47.370Z,0.00
2023-08-03T01:43:47.418Z,0.00
2023-08-03T01:44:47.341Z,0.00
2023-08-03T01:45:47.356Z,0.00
2023-08-03T01:46:47.305Z,0.00
2023-08-03T01:47:47.361Z,0.00
2023-08-03T01:48:47.299Z,0.00
2023-08-03T01:49:47.303Z,0.00
2023-08-03T01:50:47.251Z,0.00
2023-08-03T01:51:47.310Z,0.00
2023-08-03T01:52:47.255Z,0.00
2023-08-03T01:53:47.243Z,0.00
2023-08-03T01:54:47.225Z,0.00
2023-08-03T01:55:47.209Z,0.00
2023-08-03T01:56:47.180Z,0.00
2023-08-03T01:57:47.185Z,0.00
2023-08-03T01:58:47.159Z,0.00
2023-08-03T01:59:47.196Z,0.00
2023-08-03T02:00:49.770Z,0.00
2023-08-03T02:01:47.412Z,0.00
2023-08-03T02:02:47.127Z,0.00
2023-08-03T02:03:47.129Z,0.00
2023-08-03T02:04:47.098Z,0.00
2023-08-03T02:05:47.114Z,0.00
2023-08-03T02:06:47.036Z,0.00
2023-08-03T02:07:47.100Z,0.00
2023-08-03T02:08:47.048Z,0.00
2023-08-03T02:09:47.041Z,0.00
2023-08-03T02:10:47.017Z,0.00
2023-08-03T02:11:47.160Z,0.00
2023-08-03T02:12:46.977Z,0.00
2023-08-03T02:13:47.013Z,0.00
2023-08-03T02:14:47.010Z,0.00
2023-08-03T02:15:46.966Z,0.00
2023-08-03T02:16:46.928Z,0.00
2023-08-03T02:17:46.963Z,0.00
2023-08-03T02:18:46.905Z,0.00
2023-08-03T02:19:46.914Z,0.00
2023-08-03T02:20:46.887Z,0.00
2023-08-03T02:21:46.926Z,0.00
2023-08-03T02:22:46.836Z,0.00
2023-08-03T02:23:46.847Z,0.00
2023-08-03T02:24:46.821Z,0.00
2023-08-03T02:25:46.849Z,0.00
2023-08-03T02:26:46.784Z,0.00
2023-08-03T02:27:46.795Z,0.00
2023-08-03T02:28:46.771Z,0.00
2023-08-03T02:29:46.760Z,0.00
2023-08-03T02:30:46.758Z,0.00
2023-08-03T02:31:46.837Z,0.00
2023-08-03T02:32:46.763Z,0.00
2023-08-03T02:33:46.729Z,0.00
2023-08-03T02:34:46.680Z,0.00
2023-08-03T02:35:46.691Z,0.00
2023-08-03T02:36:46.658Z,0.00
2023-08-03T02:37:46.681Z,0.00
2023-08-03T02:38:46.619Z,0.00
2023-08-03T02:39:46.657Z,0.00
2023-08-03T02:40:46.601Z,0.00
2023-08-03T02:41:46.892Z,0.00
2023-08-03T02:42:46.600Z,0.00
2023-08-03T02:43:46.589Z,0.00
2023-08-03T02:44:46.554Z,0.00
2023-08-03T02:45:46.600Z,0.00
2023-08-03T02:46:46.549Z,0.00
2023-08-03T02:47:46.588Z,0.00
2023-08-03T02:48:46.503Z,0.00
2023-08-03T02:49:46.522Z,0.00
2023-08-03T02:50:46.477Z,0.00
2023-08-03T02:51:46.809Z,0.00
2023-08-03T02:52:46.446Z,0.00
2023-08-03T02:53:46.481Z,0.00
2023-08-03T02:54:46.426Z,0.00
2023-08-03T02:55:46.449Z,0.00
2023-08-03T02:56:46.402Z,0.00
2023-08-03T02:57:46.396Z,0.00
2023-08-03T02:58:46.363Z,0.00
2023-08-03T02:59:46.389Z,0.00
2023-08-03T03:00:46.337Z,0.00
2023-08-03T03:01:46.958Z,0.00
2023-08-03T03:02:46.385Z,0.00
2023-08-03T03:03:46.398Z,0.00
2023-08-03T03:04:46.300Z,0.00
2023-08-03T03:05:46.298Z,0.00
2023-08-03T03:06:46.364Z,0.00
2023-08-03T03:07:46.258Z,0.00
2023-08-03T03:08:46.251Z,0.00
2023-08-03T03:09:46.248Z,0.00
2023-08-03T03:10:46.203Z,0.00
2023-08-03T03:11:46.562Z,0.00
2023-08-03T03:12:46.213Z,0.00
2023-08-03T03:13:46.188Z,0.00
2023-08-03T03:14:46.155Z,0.00
2023-08-03T03:15:46.161Z,0.00
2023-08-03T03:16:46.175Z,0.00
2023-08-03T03:17:46.188Z,0.00
2023-08-03T03:18:46.115Z,0.00
2023-08-03T03:19:46.085Z,0.00
2023-08-03T03:20:46.153Z,0.00
2023-08-03T03:21:46.396Z,0.00
2023-08-03T03:22:46.085Z,0.00
2023-08-03T03:23:46.041Z,0.00
2023-08-03T03:24:46.043Z,0.00
2023-08-03T03:25:46.003Z,0.00
2023-08-03T03:26:46.058Z,0.00
2023-08-03T03:27:45.982Z,0.00
2023-08-03T03:28:46.028Z,0.00
2023-08-03T03:29:45.953Z,0.00
2023-08-03T03:30:45.974Z,0.00
2023-08-03T03:31:46.172Z,0.00
2023-08-03T03:32:45.982Z,0.00
2023-08-03T03:33:45.933Z,0.00
2023-08-03T03:34:45.933Z,0.00
2023-08-03T03:35:45.880Z,0.00
2023-08-03T03:36:45.889Z,0.00
2023-08-03T03:37:45.898Z,0.00
2023-08-03T03:38:45.863Z,0.00
2023-08-03T03:39:45.828Z,0.00
2023-08-03T03:40:45.848Z,0.00
2023-08-03T03:41:46.002Z,0.00
2023-08-03T03:42:45.837Z,0.00
2023-08-03T03:43:45.759Z,0.00
2023-08-03T03:44:45.788Z,0.00
2023-08-03T03:45:45.796Z,0.00
2023-08-03T03:46:45.766Z,0.00
2023-08-03T03:47:45.775Z,0.00
2023-08-03T03:48:45.737Z,0.00
2023-08-03T03:49:45.744Z,0.00
2023-08-03T03:50:45.739Z,0.00
2023-08-03T03:51:45.894Z,0.00
2023-08-03T03:52:45.682Z,0.00
2023-08-03T03:53:45.644Z,0.00
2023-08-03T03:54:45.646Z,0.00
2023-08-03T03:55:45.645Z,0.00
2023-08-03T03:56:45.624Z,0.00
2023-08-03T03:57:45.597Z,0.00
2023-08-03T03:58:45.606Z,4.00
2023-08-03T03:59:45.562Z,4.00
2023-08-03T04:00:45.622Z,0.00
2023-08-03T04:01:45.801Z,4.00
2023-08-03T04:02:45.606Z,4.00
2023-08-03T04:03:45.530Z,4.00
2023-08-03T04:04:45.517Z,4.00
2023-08-03T04:05:45.518Z,0.00
2023-08-03T04:06:45.598Z,0.00
2023-08-03T04:07:45.461Z,0.00
2023-08-03T04:08:45.467Z,4.00
2023-08-03T04:09:45.416Z,0.00
2023-08-03T04:10:45.438Z,0.00
2023-08-03T04:11:45.772Z,4.00
2023-08-03T04:12:45.432Z,4.00
2023-08-03T04:13:45.388Z,0.00
2023-08-03T04:14:45.411Z,0.00
2023-08-03T04:15:45.368Z,4.00
2023-08-03T04:16:45.397Z,4.00
2023-08-03T04:17:45.344Z,0.00
2023-08-03T04:18:45.329Z,4.00
2023-08-03T04:19:45.337Z,0.00
2023-08-03T04:20:45.302Z,4.00
2023-08-03T04:21:45.472Z,4.00
2023-08-03T04:22:46.955Z,8.00
2023-08-03T04:23:45.261Z,4.00
2023-08-03T04:24:45.244Z,8.00
2023-08-03T04:25:45.215Z,8.00
2023-08-03T04:26:45.267Z,4.00
2023-08-03T04:27:45.196Z,4.00
2023-08-03T04:28:45.207Z,8.00
2023-08-03T04:29:45.154Z,8.00
2023-08-03T04:30:45.224Z,12.00
2023-08-03T04:31:45.433Z,4.00
2023-08-03T04:32:45.172Z,8.00
2023-08-03T04:33:45.124Z,8.00
2023-08-03T04:34:45.129Z,8.00
2023-08-03T04:35:45.080Z,8.00
2023-08-03T04:36:45.088Z,12.00
2023-08-03T04:37:45.072Z,12.00
2023-08-03T04:38:45.054Z,12.00
2023-08-03T04:39:45.034Z,12.00
2023-08-03T04:40:45.050Z,16.00
2023-08-03T04:41:45.272Z,16.00
2023-08-03T04:42:45.002Z,16.00
2023-08-03T04:43:47.304Z,20.00
2023-08-03T04:44:44.999Z,20.00
2023-08-03T04:45:44.984Z,16.00
2023-08-03T04:46:44.969Z,16.00
2023-08-03T04:47:44.964Z,20.00
2023-08-03T04:48:44.933Z,24.00
2023-08-03T04:49:44.913Z,20.00
2023-08-03T04:50:44.926Z,24.00
2023-08-03T04:51:45.119Z,20.00
2023-08-03T04:52:44.862Z,16.00
2023-08-03T04:53:44.845Z,16.00
2023-08-03T04:54:44.865Z,12.00
2023-08-03T04:55:44.818Z,12.00
2023-08-03T04:56:44.863Z,12.00
2023-08-03T04:57:44.781Z,16.00
2023-08-03T04:58:44.804Z,12.00
2023-08-03T04:59:44.760Z,12.00
2023-08-03T05:00:44.926Z,8.00
2023-08-03T05:01:45.150Z,12.00
2023-08-03T05:02:44.783Z,8.00
2023-08-03T05:03:44.731Z,12.00
2023-08-03T05:04:44.739Z,16.00
2023-08-03T05:05:44.713Z,12.00
2023-08-03T05:06:44.746Z,16.00
2023-08-03T05:07:44.641Z,16.00
2023-08-03T05:08:44.691Z,16.00
2023-08-03T05:09:44.626Z,20.00
2023-08-03T05:10:44.649Z,20.00
2023-08-03T05:11:44.887Z,20.00
2023-08-03T05:12:44.631Z,20.00
2023-08-03T05:13:44.587Z,16.00
2023-08-03T05:14:44.591Z,24.00
2023-08-03T05:15:44.593Z,28.00
2023-08-03T05:16:44.640Z,28.00
2023-08-03T05:17:44.577Z,24.00
2023-08-03T05:18:44.532Z,36.00
2023-08-03T05:19:44.492Z,48.00
2023-08-03T05:20:44.528Z,48.00
2023-08-03T05:21:44.805Z,56.00
2023-08-03T05:22:44.526Z,56.00
2023-08-03T05:23:44.470Z,60.00
2023-08-03T05:24:44.454Z,60.00
2023-08-03T05:25:44.420Z,60.00
2023-08-03T05:26:44.415Z,56.00
2023-08-03T05:27:44.387Z,52.00
2023-08-03T05:28:44.503Z,48.00
2023-08-03T05:29:44.358Z,52.00
2023-08-03T05:30:44.399Z,52.00
2023-08-03T05:31:44.590Z,44.00
2023-08-03T05:32:44.374Z,48.00
2023-08-03T05:33:44.337Z,56.00
2023-08-03T05:34:44.353Z,56.00
2023-08-03T05:35:44.339Z,56.00
2023-08-03T05:36:44.284Z,68.00
2023-08-03T05:37:44.273Z,72.00
2023-08-03T05:38:44.294Z,80.00
2023-08-03T05:39:44.249Z,72.00
2023-08-03T05:40:44.351Z,56.00
2023-08-03T05:41:44.466Z,44.00
2023-08-03T05:42:44.229Z,44.00
2023-08-03T05:43:44.186Z,40.00
2023-08-03T05:44:44.218Z,36.00
2023-08-03T05:45:44.158Z,24.00
2023-08-03T05:46:44.211Z,24.00
2023-08-03T05:47:44.168Z,24.00
2023-08-03T05:48:44.127Z,24.00
2023-08-03T05:49:44.096Z,24.00
2023-08-03T05:50:44.138Z,20.00
2023-08-03T05:51:44.351Z,20.00
2023-08-03T05:52:44.074Z,20.00
2023-08-03T05:53:44.055Z,24.00
2023-08-03T05:54:46.394Z,20.00
2023-08-03T05:55:45.783Z,20.00
2023-08-03T05:56:44.045Z,24.00
2023-08-03T05:57:44.004Z,24.00
2023-08-03T05:58:44.000Z,24.00
2023-08-03T05:59:43.986Z,24.00
2023-08-03T06:00:43.979Z,24.00
2023-08-03T06:01:44.128Z,28.00
2023-08-03T06:02:43.952Z,36.00
2023-08-03T06:03:43.968Z,32.00
2023-08-03T06:04:43.933Z,32.00
2023-08-03T06:05:43.915Z,40.00
2023-08-03T06:06:43.943Z,36.00
2023-08-03T06:07:43.865Z,36.00
2023-08-03T06:08:43.872Z,40.00
2023-08-03T06:09:43.836Z,40.00
2023-08-03T06:10:43.883Z,28.00
2023-08-03T06:11:43.817Z,24.00
2023-08-03T06:12:43.815Z,28.00
2023-08-03T06:13:43.776Z,36.00
2023-08-03T06:14:43.785Z,32.00
2023-08-03T06:15:43.784Z,36.00
2023-08-03T06:16:43.773Z,40.00
2023-08-03T06:17:43.850Z,36.00
2023-08-03T06:18:43.751Z,32.00
2023-08-03T06:19:43.691Z,36.00
2023-08-03T06:20:43.733Z,40.00
2023-08-03T06:21:43.862Z,44.00
2023-08-03T06:22:43.691Z,48.00
2023-08-03T06:23:43.643Z,44.00
2023-08-03T06:24:43.660Z,40.00
2023-08-03T06:25:43.651Z,32.00
2023-08-03T06:26:43.633Z,32.00
2023-08-03T06:27:43.627Z,32.00
2023-08-03T06:28:43.591Z,36.00
2023-08-03T06:29:43.571Z,32.00
2023-08-03T06:30:43.584Z,32.00
2023-08-03T06:31:43.833Z,32.00
2023-08-03T06:32:43.576Z,28.00
2023-08-03T06:33:43.516Z,24.00
2023-08-03T06:34:43.530Z,32.00
2023-08-03T06:35:43.579Z,36.00
2023-08-03T06:36:43.550Z,32.00
2023-08-03T06:37:43.460Z,32.00
2023-08-03T06:38:43.509Z,32.00
2023-08-03T06:39:43.441Z,28.00
2023-08-03T06:40:43.477Z,36.00
2023-08-03T06:41:43.759Z,44.00
2023-08-03T06:42:43.426Z,44.00
2023-08-03T06:43:43.368Z,40.00
2023-08-03T06:44:43.385Z,40.00
2023-08-03T06:45:43.408Z,40.00
2023-08-03T06:46:43.396Z,40.00
2023-08-03T06:47:43.359Z,36.00
2023-08-03T06:48:43.329Z,36.00
2023-08-03T06:49:43.321Z,36.00
2023-08-03T06:50:43.307Z,40.00
2023-08-03T06:51:43.577Z,48.00
2023-08-03T06:52:43.285Z,48.00
2023-08-03T06:53:43.274Z,40.00
2023-08-03T06:54:43.262Z,44.00
2023-08-03T06:55:43.234Z,44.00
2023-08-03T06:56:43.229Z,40.00
2023-08-03T06:57:43.197Z,44.00
2023-08-03T06:58:43.235Z,36.00
2023-08-03T06:59:43.155Z,40.00
2023-08-03T07:00:43.217Z,40.00
2023-08-03T07:01:43.506Z,40.00
2023-08-03T07:02:43.390Z,56.00
2023-08-03T07:03:43.256Z,52.00
2023-08-03T07:04:43.174Z,48.00
2023-08-03T07:05:43.091Z,48.00
2023-08-03T07:06:43.157Z,52.00
2023-08-03T07:07:43.068Z,56.00
2023-08-03T07:08:43.139Z,56.00
2023-08-03T07:09:43.026Z,52.00
2023-08-03T07:10:43.073Z,60.00
2023-08-03T07:11:43.416Z,56.00
2023-08-03T07:12:43.003Z,56.00
2023-08-03T07:13:42.983Z,68.00
2023-08-03T07:14:42.991Z,64.00
2023-08-03T07:15:43.008Z,72.00
2023-08-03T07:16:42.979Z,64.00
2023-08-03T07:17:42.985Z,72.00
2023-08-03T07:18:42.944Z,84.00
2023-08-03T07:19:42.915Z,96.00
2023-08-03T07:20:42.921Z,116.00
2023-08-03T07:21:43.325Z,100.00
2023-08-03T07:22:42.872Z,124.00
2023-08-03T07:23:42.847Z,140.00
2023-08-03T07:24:42.855Z,124.00
2023-08-03T07:25:42.841Z,116.00
2023-08-03T07:26:42.864Z,104.00
2023-08-03T07:27:42.792Z,100.00
2023-08-03T07:28:42.811Z,100.00
2023-08-03T07:29:42.787Z,100.00
2023-08-03T07:30:42.797Z,92.00
2023-08-03T07:31:43.286Z,96.00
2023-08-03T07:32:42.773Z,88.00
2023-08-03T07:33:42.765Z,88.00
2023-08-03T07:34:42.710Z,88.00
2023-08-03T07:35:42.729Z,96.00
2023-08-03T07:36:42.668Z,92.00
2023-08-03T07:37:42.717Z,96.00
2023-08-03T07:38:42.673Z,104.00
2023-08-03T07:39:42.663Z,88.00
2023-08-03T07:40:42.644Z,84.00
2023-08-03T07:41:42.875Z,76.00
2023-08-03T07:42:42.620Z,96.00
2023-08-03T07:43:42.609Z,100.00
2023-08-03T07:46:42.604Z,116.00
2023-08-03T07:47:42.649Z,124.00
2023-08-03T07:48:42.558Z,132.00
2023-08-03T07:49:42.545Z,200.00
2023-08-03T07:50:42.501Z,200.00
2023-08-03T07:51:42.551Z,188.00
2023-08-03T07:52:42.466Z,180.00
2023-08-03T07:53:42.498Z,188.00
2023-08-03T07:54:42.449Z,180.00
2023-08-03T07:55:42.486Z,144.00
2023-08-03T07:56:42.401Z,132.00
2023-08-03T07:57:42.441Z,120.00
2023-08-03T07:58:42.386Z,128.00
2023-08-03T07:59:42.437Z,144.00
2023-08-03T08:00:42.455Z,152.00
2023-08-03T08:01:42.546Z,140.00
2023-08-03T08:02:42.353Z,144.00
2023-08-03T08:03:42.421Z,160.00
2023-08-03T08:04:42.402Z,152.00
2023-08-03T08:05:42.331Z,152.00
2023-08-03T08:06:42.279Z,160.00
2023-08-03T08:07:42.336Z,156.00
2023-08-03T08:08:42.266Z,152.00
2023-08-03T08:09:42.298Z,144.00
2023-08-03T08:10:42.285Z,160.00
2023-08-03T08:11:42.288Z,184.00
2023-08-03T08:12:42.185Z,172.00
2023-08-03T08:13:42.203Z,152.00
2023-08-03T08:14:42.193Z,168.00
2023-08-03T08:15:42.269Z,196.00
2023-08-03T08:16:42.174Z,196.00
2023-08-03T08:17:42.194Z,172.00
2023-08-03T08:18:42.266Z,144.00
2023-08-03T08:19:42.155Z,132.00
2023-08-03T08:20:42.096Z,116.00
2023-08-03T08:21:42.341Z,104.00
2023-08-03T08:22:42.134Z,108.00
2023-08-03T08:23:42.081Z,96.00
2023-08-03T08:24:42.070Z,100.00
2023-08-03T08:25:42.242Z,100.00
2023-08-03T08:26:42.205Z,92.00
2023-08-03T08:27:42.143Z,84.00
2023-08-03T08:28:45.800Z,76.00
2023-08-03T08:29:42.009Z,92.00
2023-08-03T08:30:42.051Z,100.00
2023-08-03T08:32:41.959Z,108.00
2023-08-03T08:33:41.979Z,92.00
2023-08-03T08:34:41.906Z,88.00
2023-08-03T08:35:41.945Z,104.00
2023-08-03T08:36:41.918Z,116.00
2023-08-03T08:37:41.890Z,112.00
2023-08-03T08:38:41.874Z,100.00
2023-08-03T08:39:41.913Z,84.00
2023-08-03T08:40:41.845Z,68.00
2023-08-03T08:41:42.330Z,68.00
2023-08-03T08:42:41.854Z,72.00
2023-08-03T08:43:41.846Z,72.00
2023-08-03T08:44:41.783Z,68.00
2023-08-03T08:45:41.791Z,64.00
2023-08-03T08:46:41.886Z,68.00
2023-08-03T08:47:41.919Z,68.00
2023-08-03T08:49:43.674Z,60.00
2023-08-03T08:59:41.588Z,56.00
2023-08-03T09:00:41.572Z,52.00
2023-08-03T09:01:41.695Z,56.00
2023-08-03T09:02:41.637Z,56.00
2023-08-03T09:04:41.577Z,52.00
2023-08-03T09:06:43.877Z,44.00
2023-08-03T09:07:41.549Z,48.00
2023-08-03T09:08:41.484Z,48.00
2023-08-03T09:09:41.484Z,36.00
2023-08-03T09:10:41.447Z,36.00
2023-08-03T09:11:41.671Z,44.00
2023-08-03T09:12:41.459Z,44.00
2023-08-03T09:13:41.412Z,40.00
2023-08-03T09:14:41.368Z,36.00
2023-08-03T09:15:41.398Z,32.00
2023-08-03T09:16:41.375Z,36.00
2023-08-03T09:17:41.448Z,40.00
2023-08-03T09:18:41.377Z,36.00
2023-08-03T09:20:43.861Z,36.00
2023-08-03T09:20:49.532Z,44.00
2023-08-03T09:24:41.286Z,40.00
2023-08-03T09:25:42.031Z,44.00
2023-08-03T09:28:41.266Z,44.00
2023-08-03T09:29:41.217Z,56.00
2023-08-03T09:30:41.212Z,56.00
2023-08-03T09:31:55.275Z,60.00
2023-08-03T09:32:50.800Z,56.00
2023-08-03T09:33:41.282Z,56.00
2023-08-03T09:36:41.092Z,56.00
2023-08-03T09:38:41.048Z,64.00
2023-08-03T09:39:41.059Z,64.00
2023-08-03T09:40:41.029Z,60.00
2023-08-03T09:42:41.020Z,64.00
2023-08-03T09:43:41.050Z,64.00
2023-08-03T09:44:40.967Z,56.00
2023-08-03T09:45:40.992Z,52.00
2023-08-03T09:46:41.011Z,48.00
2023-08-03T09:47:41.074Z,56.00
2023-08-03T09:48:41.004Z,56.00
2023-08-03T09:49:40.929Z,56.00
2023-08-03T09:50:40.987Z,56.00
2023-08-03T09:52:04.448Z,56.00
2023-08-03T09:53:40.902Z,64.00
2023-08-03T09:55:40.891Z,72.00
2023-08-03T09:56:40.925Z,84.00
2023-08-03T09:57:40.826Z,92.00
2023-08-03T09:58:40.781Z,96.00
2023-08-03T09:59:40.852Z,96.00
2023-08-03T10:00:46.165Z,92.00
2023-08-03T10:01:40.790Z,92.00
2023-08-03T10:02:40.739Z,92.00
2023-08-03T10:03:40.841Z,92.00
2023-08-03T10:04:40.731Z,88.00
2023-08-03T10:05:40.741Z,96.00
2023-08-03T10:06:40.722Z,96.00
2023-08-03T10:07:40.705Z,104.00
2023-08-03T10:08:40.995Z,92.00
2023-08-03T10:09:40.750Z,68.00
2023-08-03T10:10:40.643Z,56.00
2023-08-03T10:11:40.671Z,52.00
2023-08-03T10:12:40.684Z,52.00
2023-08-03T10:13:40.609Z,56.00
2023-08-03T10:14:40.597Z,64.00
2023-08-03T10:15:40.652Z,60.00
2023-08-03T10:16:40.581Z,64.00
2023-08-03T10:17:40.636Z,64.00
2023-08-03T10:18:50.199Z,72.00
2023-08-03T10:19:40.549Z,72.00
2023-08-03T10:20:40.661Z,68.00
2023-08-03T10:21:40.505Z,72.00
2023-08-03T10:22:40.484Z,72.00
2023-08-03T10:23:40.465Z,72.00
2023-08-03T10:24:40.500Z,72.00
2023-08-03T10:25:40.424Z,80.00
2023-08-03T10:26:40.480Z,80.00
2023-08-03T10:27:40.421Z,88.00
2023-08-03T10:28:40.407Z,92.00
2023-08-03T10:29:40.385Z,96.00
2023-08-03T10:30:40.418Z,100.00
2023-08-03T10:31:40.448Z,100.00
2023-08-03T10:32:40.422Z,88.00
2023-08-03T10:33:40.360Z,100.00
2023-08-03T10:34:40.334Z,104.00
2023-08-03T10:35:40.308Z,104.00
2023-08-03T10:36:42.223Z,104.00
2023-08-03T10:37:40.299Z,104.00
2023-08-03T10:38:40.277Z,108.00
2023-08-03T10:39:40.287Z,92.00
2023-08-03T10:40:40.263Z,104.00
2023-08-03T10:41:40.223Z,104.00
2023-08-03T10:42:40.317Z,96.00
2023-08-03T10:43:40.191Z,104.00
2023-08-03T10:44:40.238Z,112.00
2023-08-03T10:45:40.261Z,124.00
2023-08-03T10:46:40.293Z,132.00
2023-08-03T10:47:40.278Z,128.00
2023-08-03T10:48:40.315Z,128.00
2023-08-03T10:49:40.163Z,120.00
2023-08-03T10:50:40.120Z,148.00
2023-08-03T10:51:40.077Z,156.00
2023-08-03T10:52:40.120Z,164.00
2023-08-03T10:53:40.088Z,180.00
2023-08-03T10:54:40.102Z,216.00
2023-08-03T10:55:40.081Z,192.00
2023-08-03T10:56:40.115Z,220.00
2023-08-03T10:57:40.019Z,204.00
2023-08-03T10:58:40.055Z,192.00
2023-08-03T10:59:39.976Z,204.00
2023-08-03T11:00:40.010Z,180.00
2023-08-03T11:01:40.037Z,176.00
2023-08-03T11:02:40.062Z,196.00
2023-08-03T11:03:40.053Z,208.00
2023-08-03T11:04:40.009Z,156.00
2023-08-03T11:05:39.947Z,164.00
2023-08-03T11:06:39.910Z,160.00
2023-08-03T11:07:39.909Z,168.00
2023-08-03T11:08:39.920Z,176.00
2023-08-03T11:09:40.127Z,156.00
2023-08-03T11:10:39.872Z,176.00
2023-08-03T11:11:39.869Z,200.00
2023-08-03T11:12:39.839Z,220.00
2023-08-03T11:13:39.846Z,216.00
2023-08-03T11:14:39.837Z,208.00
2023-08-03T11:15:39.763Z,196.00
2023-08-03T11:16:39.802Z,192.00
2023-08-03T11:17:39.814Z,224.00
2023-08-03T11:18:39.753Z,224.00
2023-08-03T11:19:39.707Z,248.00
2023-08-03T11:20:39.752Z,268.00
2023-08-03T11:21:39.684Z,280.00
2023-08-03T11:22:39.714Z,276.00
2023-08-03T11:23:39.666Z,268.00
2023-08-03T11:24:39.678Z,208.00
2023-08-03T11:25:39.652Z,180.00
2023-08-03T11:26:39.682Z,208.00
2023-08-03T11:27:39.613Z,212.00
2023-08-03T11:28:39.660Z,212.00
2023-08-03T11:29:41.532Z,200.00
2023-08-03T11:30:39.588Z,180.00
2023-08-03T11:31:39.594Z,160.00
2023-08-03T11:32:39.610Z,176.00
2023-08-03T11:33:39.556Z,220.00
2023-08-03T11:34:39.600Z,292.00
2023-08-03T11:35:40.316Z,356.00
2023-08-03T11:36:39.541Z,380.00
2023-08-03T11:37:39.519Z,380.00
2023-08-03T11:38:39.481Z,380.00
2023-08-03T11:39:39.470Z,336.00
2023-08-03T11:40:39.522Z,364.00
2023-08-03T11:41:39.417Z,396.00
2023-08-03T11:42:39.464Z,384.00
2023-08-03T11:43:39.437Z,364.00
2023-08-03T11:44:49.885Z,376.00
2023-08-03T11:45:39.423Z,352.00
2023-08-03T11:46:39.418Z,264.00
2023-08-03T11:47:40.105Z,292.00
2023-08-03T11:48:39.335Z,212.00
2023-08-03T11:49:39.509Z,192.00
2023-08-03T11:50:39.388Z,216.00
2023-08-03T11:51:39.435Z,144.00
2023-08-03T11:52:39.669Z,116.00
2023-08-03T11:53:39.345Z,124.00
2023-08-03T11:54:39.366Z,164.00
2023-08-03T11:55:39.402Z,136.00
2023-08-03T11:56:45.768Z,108.00
2023-08-03T11:57:39.269Z,120.00
2023-08-03T11:58:39.276Z,148.00
2023-08-03T12:00:39.259Z,104.00
2023-08-03T12:01:39.249Z,100.00
2023-08-03T12:02:39.337Z,140.00
2023-08-03T12:03:39.215Z,176.00
2023-08-03T12:05:50.223Z,332.00
2023-08-03T12:07:39.336Z,336.00
2023-08-03T12:08:39.139Z,340.00
2023-08-03T12:09:39.084Z,300.00
2023-08-03T12:10:40.329Z,268.00
2023-08-03T12:11:39.439Z,296.00
2023-08-03T12:12:39.786Z,308.00
2023-08-03T12:13:39.698Z,328.00
2023-08-03T12:14:39.014Z,336.00
2023-08-03T12:15:39.024Z,324.00
2023-08-03T12:16:38.998Z,252.00
2023-08-03T12:17:39.007Z,244.00
2023-08-03T12:18:38.957Z,280.00
2023-08-03T12:19:39.982Z,292.00
2023-08-03T12:20:40.127Z,264.00
2023-08-03T12:21:38.963Z,264.00
2023-08-03T12:22:38.908Z,260.00
2023-08-03T12:23:38.921Z,236.00
2023-08-03T12:24:38.947Z,224.00
2023-08-03T12:25:42.179Z,260.00
2023-08-03T12:26:38.828Z,308.00
2023-08-03T12:27:38.869Z,248.00
2023-08-03T12:28:38.835Z,320.00
2023-08-03T12:29:42.238Z,292.00
2023-08-03T12:30:38.807Z,280.00
2023-08-03T12:31:38.816Z,268.00
2023-08-03T12:33:38.992Z,284.00
2023-08-03T12:34:38.730Z,336.00
2023-08-03T12:35:38.741Z,320.00
2023-08-03T12:36:38.748Z,320.00
2023-08-03T12:37:38.810Z,316.00
2023-08-03T12:38:38.677Z,316.00
2023-08-03T12:39:38.721Z,320.00
2023-08-03T12:40:39.602Z,320.00
2023-08-03T12:41:38.665Z,324.00
2023-08-03T12:42:38.633Z,296.00
2023-08-03T12:43:38.658Z,256.00
2023-08-03T12:44:38.605Z,196.00
2023-08-03T12:45:38.697Z,200.00
2023-08-03T12:46:38.584Z,224.00
2023-08-03T12:47:38.656Z,204.00
2023-08-03T12:48:38.715Z,212.00
2023-08-03T12:49:38.560Z,268.00
2023-08-03T12:50:38.583Z,268.00
2023-08-03T12:51:38.519Z,240.00
2023-08-03T12:52:38.574Z,244.00
2023-08-03T12:53:38.492Z,300.00
2023-08-03T12:54:38.499Z,260.00
2023-08-03T12:55:38.488Z,252.00
2023-08-03T12:56:38.454Z,276.00
2023-08-03T12:57:38.452Z,240.00
2023-08-03T12:58:40.292Z,272.00
2023-08-03T12:59:38.460Z,280.00
2023-08-03T13:00:38.401Z,272.00
2023-08-03T13:01:38.456Z,248.00
2023-08-03T13:02:42.272Z,252.00
2023-08-03T13:03:38.370Z,208.00
2023-08-03T13:04:38.376Z,188.00
2023-08-03T13:05:39.083Z,228.00
2023-08-03T13:06:38.324Z,220.00
2023-08-03T13:07:38.354Z,228.00
2023-08-03T13:08:38.341Z,220.00
2023-08-03T13:09:38.547Z,196.00
2023-08-03T13:10:38.297Z,188.00
2023-08-03T13:11:38.269Z,180.00
2023-08-03T13:12:38.362Z,208.00
2023-08-03T13:13:38.243Z,164.00
2023-08-03T13:14:38.244Z,156.00
2023-08-03T13:15:38.317Z,148.00
2023-08-03T13:16:38.263Z,168.00
2023-08-03T13:17:38.287Z,168.00
2023-08-03T13:18:38.274Z,152.00
2023-08-03T13:19:38.165Z,156.00
2023-08-03T13:20:39.868Z,164.00
2023-08-03T13:21:38.149Z,168.00
2023-08-03T13:22:38.108Z,132.00
2023-08-03T13:23:38.113Z,120.00
2023-08-03T13:24:38.074Z,120.00